KRHI/RHI METAR and TAF weather

Enter ICAO airport designator
Station Type Date Time Source
KRHI METAR 2018/12/10 12:53 UTC NOAA

KRHI 101253Z AUTO 26007KT 3SM HZ OVC003 M07/M10 A3009 RMK AO2 SLP218 T10721100


Station Type Date Time Source
KRHI Decoded METAR 2018/12/10 12:53 UTC NOAA

RHINELANDER-ONEIDA CO AIRPORT , WI, United States (KRHI) 45-38N 89-29W 485M
Dec 10, 2018 - 07:53 AM EST / 2018.12.10 1253 UTC
Wind: from the W (260 degrees) at 8 MPH (7 KT):0
Visibility: 3 mile(s):0
Sky conditions: overcast
Weather: haze
Temperature: 19.0 F (-7.2 C)
Windchill: 8 F (-13 C):1
Dew Point: 14.0 F (-10.0 C)
Relative Humidity: 80%
Pressure (altimeter): 30.09 in. Hg (1018 hPa)
ob: KRHI 101253Z AUTO 26007KT 3SM HZ OVC003 M07/M10 A3009 RMK AO2 SLP218 T10721100
cycle: 13

Station Type Date Time Source
KRHI TAF 2018/12/10 12:40 UTC NOAA

TAF KRHI 101137Z 1012/1112 25006KT 3SM BR BKN004
TEMPO 1012/1016 1SM BR BKN002
FM101600 24008KT 6SM BR SCT008
FM101800 25008KT P6SM SCT012 SCT200
TEMPO 1104/1108 6SM BR BKN012
FM110800 29004KT 6SM BR SCT006 OVC012
TEMPO 1108/1112 3SM BR BKN006


Example: see airport list